sensor_id;sensor_type;location;lat;lon;timestamp;temperature;humidity
71188;DHT22;58893;53.130;8.158;2023-04-10T00:01:00;12.10;62.60
71188;DHT22;58893;53.130;8.158;2023-04-10T00:03:26;12.10;62.60
71188;DHT22;58893;53.130;8.158;2023-04-10T00:05:52;12.10;62.60
71188;DHT22;58893;53.130;8.158;2023-04-10T00:08:21;12.10;62.70
71188;DHT22;58893;53.130;8.158;2023-04-10T00:10:46;12.00;62.60
71188;DHT22;58893;53.130;8.158;2023-04-10T00:13:12;12.00;62.70
71188;DHT22;58893;53.130;8.158;2023-04-10T00:15:38;12.00;62.80
71188;DHT22;58893;53.130;8.158;2023-04-10T00:18:04;12.00;63.00
71188;DHT22;58893;53.130;8.158;2023-04-10T00:20:29;11.90;63.00
71188;DHT22;58893;53.130;8.158;2023-04-10T00:22:55;11.90;63.00
71188;DHT22;58893;53.130;8.158;2023-04-10T00:25:21;11.90;63.00
71188;DHT22;58893;53.130;8.158;2023-04-10T00:27:47;11.90;63.10
71188;DHT22;58893;53.130;8.158;2023-04-10T00:30:13;11.90;63.00
71188;DHT22;58893;53.130;8.158;2023-04-10T00:32:38;11.90;63.00
71188;DHT22;58893;53.130;8.158;2023-04-10T00:35:06;11.90;63.10
71188;DHT22;58893;53.130;8.158;2023-04-10T00:37:32;11.90;63.10
71188;DHT22;58893;53.130;8.158;2023-04-10T00:39:57;11.80;63.10
71188;DHT22;58893;53.130;8.158;2023-04-10T00:42:23;11.80;63.20
71188;DHT22;58893;53.130;8.158;2023-04-10T00:44:49;11.80;63.30
71188;DHT22;58893;53.130;8.158;2023-04-10T00:47:15;11.80;63.20
71188;DHT22;58893;53.130;8.158;2023-04-10T00:49:41;11.80;63.40
71188;DHT22;58893;53.130;8.158;2023-04-10T00:52:07;11.80;63.60
71188;DHT22;58893;53.130;8.158;2023-04-10T00:54:34;11.80;66.30
71188;DHT22;58893;53.130;8.158;2023-04-10T00:57:01;11.80;63.40
71188;DHT22;58893;53.130;8.158;2023-04-10T00:59:28;11.80;63.40
71188;DHT22;58893;53.130;8.158;2023-04-10T01:01:53;11.80;63.50
71188;DHT22;58893;53.130;8.158;2023-04-10T01:04:20;11.80;63.60
71188;DHT22;58893;53.130;8.158;2023-04-10T01:06:54;11.80;63.60
71188;DHT22;58893;53.130;8.158;2023-04-10T01:09:41;11.80;63.70
71188;DHT22;58893;53.130;8.158;2023-04-10T01:17:32;11.80;65.60
71188;DHT22;58893;53.130;8.158;2023-04-10T01:25:46;11.80;64.20
71188;DHT22;58893;53.130;8.158;2023-04-10T01:30:39;11.80;64.20
71188;DHT22;58893;53.130;8.158;2023-04-10T01:33:07;11.80;64.10
71188;DHT22;58893;53.130;8.158;2023-04-10T01:35:35;11.70;64.60
71188;DHT22;58893;53.130;8.158;2023-04-10T01:38:03;11.80;64.20
71188;DHT22;58893;53.130;8.158;2023-04-10T01:40:30;11.80;64.10
71188;DHT22;58893;53.130;8.158;2023-04-10T01:42:58;11.80;64.20
71188;DHT22;58893;53.130;8.158;2023-04-10T01:45:27;11.70;64.10
71188;DHT22;58893;53.130;8.158;2023-04-10T01:47:56;11.80;64.20
71188;DHT22;58893;53.130;8.158;2023-04-10T01:50:22;11.70;64.20
71188;DHT22;58893;53.130;8.158;2023-04-10T01:52:50;11.70;64.30
71188;DHT22;58893;53.130;8.158;2023-04-10T01:55:18;11.70;64.30
71188;DHT22;58893;53.130;8.158;2023-04-10T01:57:45;11.70;64.40
71188;DHT22;58893;53.130;8.158;2023-04-10T02:00:14;11.70;64.60
71188;DHT22;58893;53.130;8.158;2023-04-10T02:02:41;11.70;64.50
71188;DHT22;58893;53.130;8.158;2023-04-10T02:05:08;11.70;64.40
71188;DHT22;58893;53.130;8.158;2023-04-10T02:10:24;11.60;64.80
71188;DHT22;58893;53.130;8.158;2023-04-10T02:13:00;11.70;64.70
71188;DHT22;58893;53.130;8.158;2023-04-10T02:15:27;11.60;64.80
71188;DHT22;58893;53.130;8.158;2023-04-10T02:17:56;11.60;65.00
71188;DHT22;58893;53.130;8.158;2023-04-10T02:20:23;11.60;65.20
71188;DHT22;58893;53.130;8.158;2023-04-10T02:22:49;11.60;65.30
71188;DHT22;58893;53.130;8.158;2023-04-10T02:25:16;11.50;65.40
71188;DHT22;58893;53.130;8.158;2023-04-10T02:27:42;11.50;65.60
71188;DHT22;58893;53.130;8.158;2023-04-10T02:30:08;11.50;65.90
71188;DHT22;58893;53.130;8.158;2023-04-10T02:32:34;11.50;66.20
71188;DHT22;58893;53.130;8.158;2023-04-10T02:35:00;11.50;66.30
71188;DHT22;58893;53.130;8.158;2023-04-10T02:37:29;11.50;66.50
71188;DHT22;58893;53.130;8.158;2023-04-10T02:39:55;11.40;66.50
71188;DHT22;58893;53.130;8.158;2023-04-10T02:42:20;11.50;67.80
71188;DHT22;58893;53.130;8.158;2023-04-10T02:44:47;11.40;68.90
71188;DHT22;58893;53.130;8.158;2023-04-10T02:47:12;11.40;67.60
71188;DHT22;58893;53.130;8.158;2023-04-10T02:49:38;11.40;67.90
71188;DHT22;58893;53.130;8.158;2023-04-10T02:52:04;11.40;67.90
71188;DHT22;58893;53.130;8.158;2023-04-10T02:54:30;11.40;68.40
71188;DHT22;58893;53.130;8.158;2023-04-10T02:56:56;11.40;70.50
71188;DHT22;58893;53.130;8.158;2023-04-10T02:59:22;11.30;67.40
71188;DHT22;58893;53.130;8.158;2023-04-10T03:01:48;11.30;67.40
71188;DHT22;58893;53.130;8.158;2023-04-10T03:04:14;11.30;67.50
71188;DHT22;58893;53.130;8.158;2023-04-10T03:06:40;11.30;67.70
71188;DHT22;58893;53.130;8.158;2023-04-10T03:09:06;11.30;67.80
71188;DHT22;58893;53.130;8.158;2023-04-10T03:11:31;11.30;67.90
71188;DHT22;58893;53.130;8.158;2023-04-10T03:13:57;11.30;68.10
71188;DHT22;58893;53.130;8.158;2023-04-10T03:16:23;11.30;68.10
71188;DHT22;58893;53.130;8.158;2023-04-10T03:18:48;11.30;68.10
71188;DHT22;58893;53.130;8.158;2023-04-10T03:21:14;11.30;68.20
71188;DHT22;58893;53.130;8.158;2023-04-10T03:23:40;11.20;68.20
71188;DHT22;58893;53.130;8.158;2023-04-10T03:26:06;11.20;68.20
71188;DHT22;58893;53.130;8.158;2023-04-10T03:28:31;11.20;68.30
71188;DHT22;58893;53.130;8.158;2023-04-10T03:30:58;11.20;68.30
71188;DHT22;58893;53.130;8.158;2023-04-10T03:33:23;11.20;68.40
71188;DHT22;58893;53.130;8.158;2023-04-10T03:35:49;11.20;68.40
71188;DHT22;58893;53.130;8.158;2023-04-10T03:38:15;11.20;68.50
71188;DHT22;58893;53.130;8.158;2023-04-10T03:40:40;11.20;68.50
71188;DHT22;58893;53.130;8.158;2023-04-10T03:43:06;11.10;68.60
71188;DHT22;58893;53.130;8.158;2023-04-10T03:45:31;11.10;68.70
71188;DHT22;58893;53.130;8.158;2023-04-10T03:47:58;11.20;68.70
71188;DHT22;58893;53.130;8.158;2023-04-10T03:50:24;11.10;68.60
71188;DHT22;58893;53.130;8.158;2023-04-10T03:52:50;11.10;68.60
71188;DHT22;58893;53.130;8.158;2023-04-10T03:55:16;11.10;68.60
71188;DHT22;58893;53.130;8.158;2023-04-10T03:57:44;11.10;68.60
71188;DHT22;58893;53.130;8.158;2023-04-10T04:00:11;11.10;68.70
71188;DHT22;58893;53.130;8.158;2023-04-10T04:02:37;11.10;68.70
71188;DHT22;58893;53.130;8.158;2023-04-10T04:05:03;11.10;68.60
71188;DHT22;58893;53.130;8.158;2023-04-10T04:07:28;11.10;68.60
71188;DHT22;58893;53.130;8.158;2023-04-10T04:09:54;11.10;68.60
71188;DHT22;58893;53.130;8.158;2023-04-10T04:12:20;11.00;68.50
71188;DHT22;58893;53.130;8.158;2023-04-10T04:14:45;11.00;68.60
71188;DHT22;58893;53.130;8.158;2023-04-10T04:17:11;10.90;68.60
71188;DHT22;58893;53.130;8.158;2023-04-10T04:19:37;10.90;68.80
71188;DHT22;58893;53.130;8.158;2023-04-10T04:22:02;10.90;68.80
71188;DHT22;58893;53.130;8.158;2023-04-10T04:24:28;10.90;69.00
71188;DHT22;58893;53.130;8.158;2023-04-10T04:26:54;10.90;69.10
71188;DHT22;58893;53.130;8.158;2023-04-10T04:29:21;10.90;69.00
71188;DHT22;58893;53.130;8.158;2023-04-10T04:31:46;10.90;69.20
71188;DHT22;58893;53.130;8.158;2023-04-10T04:34:12;10.90;69.20
71188;DHT22;58893;53.130;8.158;2023-04-10T04:36:38;10.90;69.10
71188;DHT22;58893;53.130;8.158;2023-04-10T04:39:03;10.90;69.10
71188;DHT22;58893;53.130;8.158;2023-04-10T04:41:29;10.80;68.90
71188;DHT22;58893;53.130;8.158;2023-04-10T04:43:57;10.80;69.60
71188;DHT22;58893;53.130;8.158;2023-04-10T04:46:23;10.90;69.10
71188;DHT22;58893;53.130;8.158;2023-04-10T04:48:48;10.80;68.90
71188;DHT22;58893;53.130;8.158;2023-04-10T04:51:14;10.80;68.90
71188;DHT22;58893;53.130;8.158;2023-04-10T04:53:40;10.80;69.10
71188;DHT22;58893;53.130;8.158;2023-04-10T04:56:05;10.80;69.20
71188;DHT22;58893;53.130;8.158;2023-04-10T04:58:31;10.80;68.70
71188;DHT22;58893;53.130;8.158;2023-04-10T05:00:57;10.80;68.80
71188;DHT22;58893;53.130;8.158;2023-04-10T05:03:22;10.80;68.80
71188;DHT22;58893;53.130;8.158;2023-04-10T05:05:48;10.80;68.90
71188;DHT22;58893;53.130;8.158;2023-04-10T05:08:14;10.80;68.90
71188;DHT22;58893;53.130;8.158;2023-04-10T05:10:40;10.80;68.90
71188;DHT22;58893;53.130;8.158;2023-04-10T05:13:05;10.80;68.80
71188;DHT22;58893;53.130;8.158;2023-04-10T05:15:31;10.80;68.80
71188;DHT22;58893;53.130;8.158;2023-04-10T05:17:57;10.80;68.80
71188;DHT22;58893;53.130;8.158;2023-04-10T05:20:22;10.80;68.90
71188;DHT22;58893;53.130;8.158;2023-04-10T05:22:49;10.80;68.80
71188;DHT22;58893;53.130;8.158;2023-04-10T05:25:14;10.80;68.90
71188;DHT22;58893;53.130;8.158;2023-04-10T05:27:40;10.80;69.00
71188;DHT22;58893;53.130;8.158;2023-04-10T05:30:06;10.80;69.10
71188;DHT22;58893;53.130;8.158;2023-04-10T05:32:32;10.80;69.10
71188;DHT22;58893;53.130;8.158;2023-04-10T05:34:58;10.80;69.00
71188;DHT22;58893;53.130;8.158;2023-04-10T05:37:23;10.80;69.10
71188;DHT22;58893;53.130;8.158;2023-04-10T05:39:49;10.80;69.20
71188;DHT22;58893;53.130;8.158;2023-04-10T05:42:14;10.80;69.30
71188;DHT22;58893;53.130;8.158;2023-04-10T05:44:40;10.90;69.70
71188;DHT22;58893;53.130;8.158;2023-04-10T05:47:06;11.00;69.40
71188;DHT22;58893;53.130;8.158;2023-04-10T05:49:32;11.10;69.30
71188;DHT22;58893;53.130;8.158;2023-04-10T05:51:58;11.10;69.20
71188;DHT22;58893;53.130;8.158;2023-04-10T05:54:23;11.20;69.00
71188;DHT22;58893;53.130;8.158;2023-04-10T05:56:49;11.30;69.00
71188;DHT22;58893;53.130;8.158;2023-04-10T05:59:14;11.50;68.90
71188;DHT22;58893;53.130;8.158;2023-04-10T06:01:40;11.60;68.50
71188;DHT22;58893;53.130;8.158;2023-04-10T06:04:06;11.70;67.80
71188;DHT22;58893;53.130;8.158;2023-04-10T06:06:32;11.80;67.50
71188;DHT22;58893;53.130;8.158;2023-04-10T06:08:58;11.90;67.20
71188;DHT22;58893;53.130;8.158;2023-04-10T06:11:24;12.00;66.60
71188;DHT22;58893;53.130;8.158;2023-04-10T06:13:49;12.10;66.50
71188;DHT22;58893;53.130;8.158;2023-04-10T06:16:15;12.10;66.20
71188;DHT22;58893;53.130;8.158;2023-04-10T06:18:42;12.20;75.20
71188;DHT22;58893;53.130;8.158;2023-04-10T06:21:08;12.20;67.60
71188;DHT22;58893;53.130;8.158;2023-04-10T06:23:34;12.20;68.30
71188;DHT22;58893;53.130;8.158;2023-04-10T06:26:00;12.20;65.90
71188;DHT22;58893;53.130;8.158;2023-04-10T06:28:27;12.30;66.50
71188;DHT22;58893;53.130;8.158;2023-04-10T06:30:53;12.30;65.80
71188;DHT22;58893;53.130;8.158;2023-04-10T06:33:19;12.30;66.30
71188;DHT22;58893;53.130;8.158;2023-04-10T06:35:45;12.40;65.70
71188;DHT22;58893;53.130;8.158;2023-04-10T06:38:11;12.50;65.40
71188;DHT22;58893;53.130;8.158;2023-04-10T06:40:36;12.50;65.20
71188;DHT22;58893;53.130;8.158;2023-04-10T06:43:02;12.50;65.00
71188;DHT22;58893;53.130;8.158;2023-04-10T06:45:28;12.60;66.30
71188;DHT22;58893;53.130;8.158;2023-04-10T06:47:53;12.70;64.90
71188;DHT22;58893;53.130;8.158;2023-04-10T06:50:19;12.70;64.90
71188;DHT22;58893;53.130;8.158;2023-04-10T06:52:46;12.80;64.70
71188;DHT22;58893;53.130;8.158;2023-04-10T06:55:12;12.80;64.40
71188;DHT22;58893;53.130;8.158;2023-04-10T06:57:40;12.90;64.00
71188;DHT22;58893;53.130;8.158;2023-04-10T07:00:07;13.00;63.80
71188;DHT22;58893;53.130;8.158;2023-04-10T07:02:33;13.00;63.70
71188;DHT22;58893;53.130;8.158;2023-04-10T07:04:59;13.10;63.70
71188;DHT22;58893;53.130;8.158;2023-04-10T07:07:28;13.20;63.70
71188;DHT22;58893;53.130;8.158;2023-04-10T07:09:54;13.30;63.60
71188;DHT22;58893;53.130;8.158;2023-04-10T07:12:22;13.40;63.70
71188;DHT22;58893;53.130;8.158;2023-04-10T07:14:47;13.40;63.20
71188;DHT22;58893;53.130;8.158;2023-04-10T07:17:13;13.50;63.30
71188;DHT22;58893;53.130;8.158;2023-04-10T07:19:39;13.50;62.70
71188;DHT22;58893;53.130;8.158;2023-04-10T07:22:04;13.60;62.70
71188;DHT22;58893;53.130;8.158;2023-04-10T07:24:30;13.70;62.90
71188;DHT22;58893;53.130;8.158;2023-04-10T07:26:56;13.80;63.10
71188;DHT22;58893;53.130;8.158;2023-04-10T07:29:23;13.90;62.00
71188;DHT22;58893;53.130;8.158;2023-04-10T07:31:48;14.00;62.30
71188;DHT22;58893;53.130;8.158;2023-04-10T07:34:14;14.10;61.40
71188;DHT22;58893;53.130;8.158;2023-04-10T07:36:39;14.20;61.00
71188;DHT22;58893;53.130;8.158;2023-04-10T07:39:05;14.30;61.10
71188;DHT22;58893;53.130;8.158;2023-04-10T07:41:31;14.40;61.10
71188;DHT22;58893;53.130;8.158;2023-04-10T07:43:56;14.50;61.10
71188;DHT22;58893;53.130;8.158;2023-04-10T07:46:22;14.60;60.70
71188;DHT22;58893;53.130;8.158;2023-04-10T07:48:47;14.70;59.90
71188;DHT22;58893;53.130;8.158;2023-04-10T07:51:14;14.80;59.80
71188;DHT22;58893;53.130;8.158;2023-04-10T07:53:40;14.90;59.20
71188;DHT22;58893;53.130;8.158;2023-04-10T07:56:06;15.00;58.90
71188;DHT22;58893;53.130;8.158;2023-04-10T07:58:32;15.10;58.70
71188;DHT22;58893;53.130;8.158;2023-04-10T08:00:58;15.20;58.40
71188;DHT22;58893;53.130;8.158;2023-04-10T08:03:25;15.30;58.10
71188;DHT22;58893;53.130;8.158;2023-04-10T08:05:50;15.40;58.70
71188;DHT22;58893;53.130;8.158;2023-04-10T08:08:16;15.50;57.00
71188;DHT22;58893;53.130;8.158;2023-04-10T08:10:42;16.40;59.60
71188;DHT22;58893;53.130;8.158;2023-04-10T08:13:08;15.60;56.60
71188;DHT22;58893;53.130;8.158;2023-04-10T08:15:33;15.70;57.10
71188;DHT22;58893;53.130;8.158;2023-04-10T08:17:59;15.80;56.50
71188;DHT22;58893;53.130;8.158;2023-04-10T08:20:25;15.80;55.40
71188;DHT22;58893;53.130;8.158;2023-04-10T08:22:50;15.90;54.30
71188;DHT22;58893;53.130;8.158;2023-04-10T08:25:16;16.00;54.60
71188;DHT22;58893;53.130;8.158;2023-04-10T08:27:42;16.10;54.60
71188;DHT22;58893;53.130;8.158;2023-04-10T08:30:08;16.10;54.60
71188;DHT22;58893;53.130;8.158;2023-04-10T08:32:34;16.20;55.60
71188;DHT22;58893;53.130;8.158;2023-04-10T08:35:00;16.30;56.70
71188;DHT22;58893;53.130;8.158;2023-04-10T08:37:25;16.40;55.30
71188;DHT22;58893;53.130;8.158;2023-04-10T08:39:52;16.40;54.40
71188;DHT22;58893;53.130;8.158;2023-04-10T08:42:17;16.40;54.00
71188;DHT22;58893;53.130;8.158;2023-04-10T08:44:43;16.50;54.20
71188;DHT22;58893;53.130;8.158;2023-04-10T08:47:10;16.50;55.20
71188;DHT22;58893;53.130;8.158;2023-04-10T08:52:14;16.60;53.00
71188;DHT22;58893;53.130;8.158;2023-04-10T08:54:45;16.60;52.30
71188;DHT22;58893;53.130;8.158;2023-04-10T08:57:14;16.70;52.40
71188;DHT22;58893;53.130;8.158;2023-04-10T08:59:45;16.70;52.20
71188;DHT22;58893;53.130;8.158;2023-04-10T09:02:11;16.70;52.40
71188;DHT22;58893;53.130;8.158;2023-04-10T09:04:36;16.80;59.70
71188;DHT22;58893;53.130;8.158;2023-04-10T09:07:02;16.80;52.40
71188;DHT22;58893;53.130;8.158;2023-04-10T09:09:28;16.90;51.60
71188;DHT22;58893;53.130;8.158;2023-04-10T09:11:58;17.00;51.10
71188;DHT22;58893;53.130;8.158;2023-04-10T09:14:32;17.00;49.60
71188;DHT22;58893;53.130;8.158;2023-04-10T09:17:20;17.10;48.80
71188;DHT22;58893;53.130;8.158;2023-04-10T09:19:55;17.10;48.00
71188;DHT22;58893;53.130;8.158;2023-04-10T09:22:34;17.10;48.30
71188;DHT22;58893;53.130;8.158;2023-04-10T09:25:01;17.10;49.00
71188;DHT22;58893;53.130;8.158;2023-04-10T09:29:57;17.20;50.00
71188;DHT22;58893;53.130;8.158;2023-04-10T09:32:42;17.30;48.30
71188;DHT22;58893;53.130;8.158;2023-04-10T09:35:10;17.30;48.20
71188;DHT22;58893;53.130;8.158;2023-04-10T09:37:37;17.40;48.40
71188;DHT22;58893;53.130;8.158;2023-04-10T09:40:04;17.50;49.00
71188;DHT22;58893;53.130;8.158;2023-04-10T09:42:34;17.50;51.10
71188;DHT22;58893;53.130;8.158;2023-04-10T09:45:02;17.50;46.60
71188;DHT22;58893;53.130;8.158;2023-04-10T09:47:28;17.50;45.80
71188;DHT22;58893;53.130;8.158;2023-04-10T09:49:56;17.50;45.60
71188;DHT22;58893;53.130;8.158;2023-04-10T09:54:56;17.60;46.00
71188;DHT22;58893;53.130;8.158;2023-04-10T09:57:23;17.60;46.70
71188;DHT22;58893;53.130;8.158;2023-04-10T09:59:52;17.70;47.10
71188;DHT22;58893;53.130;8.158;2023-04-10T10:02:20;17.80;50.00
71188;DHT22;58893;53.130;8.158;2023-04-10T10:04:46;17.80;46.70
71188;DHT22;58893;53.130;8.158;2023-04-10T10:07:17;17.80;46.60
71188;DHT22;58893;53.130;8.158;2023-04-10T10:09:45;17.80;46.50
71188;DHT22;58893;53.130;8.158;2023-04-10T10:12:12;17.80;46.10
71188;DHT22;58893;53.130;8.158;2023-04-10T10:14:47;17.80;46.40
71188;DHT22;58893;53.130;8.158;2023-04-10T10:17:17;17.90;45.60
71188;DHT22;58893;53.130;8.158;2023-04-10T10:20:04;17.90;45.80
71188;DHT22;58893;53.130;8.158;2023-04-10T10:22:31;17.90;45.90
71188;DHT22;58893;53.130;8.158;2023-04-10T10:24:58;17.90;45.10
71188;DHT22;58893;53.130;8.158;2023-04-10T10:27:25;17.90;45.20
71188;DHT22;58893;53.130;8.158;2023-04-10T10:29:53;17.90;45.20
71188;DHT22;58893;53.130;8.158;2023-04-10T10:32:20;17.90;45.10
71188;DHT22;58893;53.130;8.158;2023-04-10T10:34:48;17.90;45.50
71188;DHT22;58893;53.130;8.158;2023-04-10T10:37:16;17.90;45.80
71188;DHT22;58893;53.130;8.158;2023-04-10T10:45:32;17.90;45.20
71188;DHT22;58893;53.130;8.158;2023-04-10T10:47:58;17.90;45.10
71188;DHT22;58893;53.130;8.158;2023-04-10T10:50:24;18.00;45.10
71188;DHT22;58893;53.130;8.158;2023-04-10T10:53:47;18.00;46.10
71188;DHT22;58893;53.130;8.158;2023-04-10T10:58:50;18.10;45.30
71188;DHT22;58893;53.130;8.158;2023-04-10T11:01:18;18.10;44.40
71188;DHT22;58893;53.130;8.158;2023-04-10T11:03:44;18.10;44.60
71188;DHT22;58893;53.130;8.158;2023-04-10T11:06:18;18.10;44.40
71188;DHT22;58893;53.130;8.158;2023-04-10T11:08:51;18.10;44.80
71188;DHT22;58893;53.130;8.158;2023-04-10T11:11:24;18.10;44.20
71188;DHT22;58893;53.130;8.158;2023-04-10T11:16:23;18.10;44.00
71188;DHT22;58893;53.130;8.158;2023-04-10T11:19:07;18.10;45.10
71188;DHT22;58893;53.130;8.158;2023-04-10T11:21:33;18.20;52.70
71188;DHT22;58893;53.130;8.158;2023-04-10T11:29:04;18.10;44.00
71188;DHT22;58893;53.130;8.158;2023-04-10T11:31:31;18.10;44.20
71188;DHT22;58893;53.130;8.158;2023-04-10T11:36:29;18.10;44.30
71188;DHT22;58893;53.130;8.158;2023-04-10T11:41:39;18.20;44.30
71188;DHT22;58893;53.130;8.158;2023-04-10T11:44:07;18.30;44.50
71188;DHT22;58893;53.130;8.158;2023-04-10T11:46:42;18.30;43.90
71188;DHT22;58893;53.130;8.158;2023-04-10T11:49:09;18.40;44.70
71188;DHT22;58893;53.130;8.158;2023-04-10T11:51:39;18.50;44.60
71188;DHT22;58893;53.130;8.158;2023-04-10T11:54:22;18.60;44.40
71188;DHT22;58893;53.130;8.158;2023-04-10T11:57:05;18.60;44.50
71188;DHT22;58893;53.130;8.158;2023-04-10T11:59:36;18.70;44.20
71188;DHT22;58893;53.130;8.158;2023-04-10T12:04:30;18.80;41.80
71188;DHT22;58893;53.130;8.158;2023-04-10T12:06:56;18.80;41.70
71188;DHT22;58893;53.130;8.158;2023-04-10T12:09:22;18.80;42.50
71188;DHT22;58893;53.130;8.158;2023-04-10T12:12:04;18.90;42.20
71188;DHT22;58893;53.130;8.158;2023-04-10T12:14:31;18.90;41.20
71188;DHT22;58893;53.130;8.158;2023-04-10T12:16:57;18.90;41.70
71188;DHT22;58893;53.130;8.158;2023-04-10T12:19:23;18.90;41.30
71188;DHT22;58893;53.130;8.158;2023-04-10T12:21:49;18.90;40.90
71188;DHT22;58893;53.130;8.158;2023-04-10T12:27:14;19.00;41.10
71188;DHT22;58893;53.130;8.158;2023-04-10T12:29:40;19.00;42.20
71188;DHT22;58893;53.130;8.158;2023-04-10T12:32:07;19.00;43.20
71188;DHT22;58893;53.130;8.158;2023-04-10T12:34:33;19.10;44.30
71188;DHT22;58893;53.130;8.158;2023-04-10T12:37:00;19.10;44.20
71188;DHT22;58893;53.130;8.158;2023-04-10T12:39:27;19.10;44.70
71188;DHT22;58893;53.130;8.158;2023-04-10T12:41:53;19.10;41.20
71188;DHT22;58893;53.130;8.158;2023-04-10T12:44:18;19.10;41.40
71188;DHT22;58893;53.130;8.158;2023-04-10T12:46:45;19.10;41.80
71188;DHT22;58893;53.130;8.158;2023-04-10T12:49:14;19.20;41.40
71188;DHT22;58893;53.130;8.158;2023-04-10T12:51:44;19.20;40.40
71188;DHT22;58893;53.130;8.158;2023-04-10T12:54:11;19.20;40.20
71188;DHT22;58893;53.130;8.158;2023-04-10T12:56:43;19.20;41.20
71188;DHT22;58893;53.130;8.158;2023-04-10T12:59:10;19.10;42.30
71188;DHT22;58893;53.130;8.158;2023-04-10T13:01:38;19.20;42.60
71188;DHT22;58893;53.130;8.158;2023-04-10T13:04:05;19.10;42.50
71188;DHT22;58893;53.130;8.158;2023-04-10T13:06:30;19.20;43.30
71188;DHT22;58893;53.130;8.158;2023-04-10T13:08:56;19.20;42.70
71188;DHT22;58893;53.130;8.158;2023-04-10T13:11:22;19.10;40.30
71188;DHT22;58893;53.130;8.158;2023-04-10T13:13:48;19.20;41.00
71188;DHT22;58893;53.130;8.158;2023-04-10T13:16:15;19.20;44.10
71188;DHT22;58893;53.130;8.158;2023-04-10T13:18:41;19.20;48.60
71188;DHT22;58893;53.130;8.158;2023-04-10T13:21:06;19.20;41.80
71188;DHT22;58893;53.130;8.158;2023-04-10T13:23:32;19.20;41.60
71188;DHT22;58893;53.130;8.158;2023-04-10T13:25:58;19.10;40.40
71188;DHT22;58893;53.130;8.158;2023-04-10T13:28:23;19.10;40.20
71188;DHT22;58893;53.130;8.158;2023-04-10T13:30:50;19.10;41.00
71188;DHT22;58893;53.130;8.158;2023-04-10T13:33:16;19.10;40.90
71188;DHT22;58893;53.130;8.158;2023-04-10T13:35:42;19.00;41.40
71188;DHT22;58893;53.130;8.158;2023-04-10T13:38:07;19.00;42.00
71188;DHT22;58893;53.130;8.158;2023-04-10T13:40:36;19.00;42.60
71188;DHT22;58893;53.130;8.158;2023-04-10T13:43:02;19.00;44.70
71188;DHT22;58893;53.130;8.158;2023-04-10T13:45:27;19.00;41.40
71188;DHT22;58893;53.130;8.158;2023-04-10T13:47:53;19.00;41.50
71188;DHT22;58893;53.130;8.158;2023-04-10T13:50:19;19.00;41.80
71188;DHT22;58893;53.130;8.158;2023-04-10T13:52:45;19.00;42.70
71188;DHT22;58893;53.130;8.158;2023-04-10T13:55:10;19.00;43.70
71188;DHT22;58893;53.130;8.158;2023-04-10T13:57:36;19.00;44.70
71188;DHT22;58893;53.130;8.158;2023-04-10T14:00:02;19.00;46.00
71188;DHT22;58893;53.130;8.158;2023-04-10T14:02:29;19.00;50.20
71188;DHT22;58893;53.130;8.158;2023-04-10T14:04:54;19.10;42.30
71188;DHT22;58893;53.130;8.158;2023-04-10T14:07:20;19.10;47.40
71188;DHT22;58893;53.130;8.158;2023-04-10T14:09:46;19.10;42.20
71188;DHT22;58893;53.130;8.158;2023-04-10T14:12:13;19.10;42.60
71188;DHT22;58893;53.130;8.158;2023-04-10T14:14:41;19.10;43.10
71188;DHT22;58893;53.130;8.158;2023-04-10T14:17:06;19.20;49.30
71188;DHT22;58893;53.130;8.158;2023-04-10T14:19:33;19.20;44.10
71188;DHT22;58893;53.130;8.158;2023-04-10T14:21:59;19.20;44.40
71188;DHT22;58893;53.130;8.158;2023-04-10T14:24:24;19.20;44.10
71188;DHT22;58893;53.130;8.158;2023-04-10T14:26:50;19.10;44.30
71188;DHT22;58893;53.130;8.158;2023-04-10T14:29:18;19.10;41.40
71188;DHT22;58893;53.130;8.158;2023-04-10T14:31:43;19.10;41.60
71188;DHT22;58893;53.130;8.158;2023-04-10T14:34:09;19.10;44.40
71188;DHT22;58893;53.130;8.158;2023-04-10T14:36:35;19.10;42.50
71188;DHT22;58893;53.130;8.158;2023-04-10T14:39:00;19.10;39.60
71188;DHT22;58893;53.130;8.158;2023-04-10T14:41:26;19.00;38.80
71188;DHT22;58893;53.130;8.158;2023-04-10T14:43:53;19.00;39.20
71188;DHT22;58893;53.130;8.158;2023-04-10T14:46:18;19.00;39.80
71188;DHT22;58893;53.130;8.158;2023-04-10T14:48:44;19.00;39.50
71188;DHT22;58893;53.130;8.158;2023-04-10T14:51:09;19.00;39.80
71188;DHT22;58893;53.130;8.158;2023-04-10T14:53:37;19.00;40.60
71188;DHT22;58893;53.130;8.158;2023-04-10T14:56:13;19.00;41.20
71188;DHT22;58893;53.130;8.158;2023-04-10T14:58:39;18.90;42.00
71188;DHT22;58893;53.130;8.158;2023-04-10T15:01:11;18.90;42.80
71188;DHT22;58893;53.130;8.158;2023-04-10T15:03:37;18.90;40.10
71188;DHT22;58893;53.130;8.158;2023-04-10T15:06:04;18.80;39.50
71188;DHT22;58893;53.130;8.158;2023-04-10T15:08:30;18.80;40.30
71188;DHT22;58893;53.130;8.158;2023-04-10T15:10:56;18.80;39.90
71188;DHT22;58893;53.130;8.158;2023-04-10T15:13:22;18.80;40.40
71188;DHT22;58893;53.130;8.158;2023-04-10T15:15:48;18.80;39.50
71188;DHT22;58893;53.130;8.158;2023-04-10T15:18:14;18.70;39.20
71188;DHT22;58893;53.130;8.158;2023-04-10T15:20:40;18.70;39.40
71188;DHT22;58893;53.130;8.158;2023-04-10T15:23:06;18.70;39.60
71188;DHT22;58893;53.130;8.158;2023-04-10T15:25:32;18.70;39.80
71188;DHT22;58893;53.130;8.158;2023-04-10T15:27:58;18.70;40.40
71188;DHT22;58893;53.130;8.158;2023-04-10T15:30:23;18.70;40.40
71188;DHT22;58893;53.130;8.158;2023-04-10T15:32:49;18.70;40.20
71188;DHT22;58893;53.130;8.158;2023-04-10T15:35:15;18.70;41.00
71188;DHT22;58893;53.130;8.158;2023-04-10T15:37:40;18.70;41.80
71188;DHT22;58893;53.130;8.158;2023-04-10T15:40:07;18.70;42.00
71188;DHT22;58893;53.130;8.158;2023-04-10T15:42:33;18.60;43.00
71188;DHT22;58893;53.130;8.158;2023-04-10T15:44:59;18.60;41.90
71188;DHT22;58893;53.130;8.158;2023-04-10T15:47:25;18.60;41.60
71188;DHT22;58893;53.130;8.158;2023-04-10T15:49:51;18.60;42.20
71188;DHT22;58893;53.130;8.158;2023-04-10T15:52:17;18.60;42.30
71188;DHT22;58893;53.130;8.158;2023-04-10T15:54:43;18.60;45.30
71188;DHT22;58893;53.130;8.158;2023-04-10T15:57:08;18.60;42.10
71188;DHT22;58893;53.130;8.158;2023-04-10T15:59:35;18.50;47.10
71188;DHT22;58893;53.130;8.158;2023-04-10T16:02:01;18.90;48.10
71188;DHT22;58893;53.130;8.158;2023-04-10T16:04:27;18.50;46.80
71188;DHT22;58893;53.130;8.158;2023-04-10T16:06:53;18.50;41.80
71188;DHT22;58893;53.130;8.158;2023-04-10T16:09:21;18.50;41.50
71188;DHT22;58893;53.130;8.158;2023-04-10T16:11:46;18.50;41.10
71188;DHT22;58893;53.130;8.158;2023-04-10T16:14:12;18.40;41.10
71188;DHT22;58893;53.130;8.158;2023-04-10T16:16:38;18.40;41.20
71188;DHT22;58893;53.130;8.158;2023-04-10T16:19:03;18.40;41.70